»·PEaware :: JST772 YMML-YPAD

JST772 :: YMML-YPAD

FLIGHT INFORMATION

Flight Status: Arrived
Operator:
Jetstar Airways
More flights by this operator :: More flights under this callsign
Pilot: Merv A. (1555)
Aircraft: AIRBUS A320
(A320)
More flights by this aircraft type
Origin: YMML Melbourne Intl
Australia
Destination: YPAD Adelaide Intl
Australia
More flights between these airports :: More routes between these airports
Route: NEVIS7 NEVIS H345 DUKES
File this flight plan on PilotEdge
Remarks: RMK / SIMBRIEF
Altitude:
(Current/Filed)
36,000ft
Speed:
(Current/Filed)
452kts
Departed: 10-Jul-19 11:05 PM
Arrived: 11-Jul-19 12:14 AM
Distance/Time
Traveled:
346nm/1:09
Distance/Time
To Go:
Arrived

Flight Plot

Page will automatically refresh every two minutes.

Flight plan parsing failed; only flown route is shown


Map Options




Map Legend


Flown Route
Filed Route
Departure Airport
Arrival Airport
Navaid (VOR, NDB)
Fix

Horizontal Profiles

Position Reports

Time Latitude Longitude Heading Altitude Ground
Speed
10-Jul-19 22:42 -37.675242 144.847446 171 448ft 0kts
10-Jul-19 22:43 -37.675242 144.847446 171 448ft 0kts
10-Jul-19 22:44 -37.675242 144.847446 171 448ft 0kts
10-Jul-19 22:45 -37.675242 144.847446 171 448ft 0kts
10-Jul-19 22:46 -37.675242 144.847446 171 448ft 0kts
10-Jul-19 22:47 -37.675242 144.847446 171 448ft 0kts
10-Jul-19 22:48 -37.675242 144.847446 171 448ft 0kts
10-Jul-19 22:49 -37.675242 144.847446 171 448ft 0kts
10-Jul-19 22:50 -37.675242 144.847446 171 448ft 0kts
10-Jul-19 22:51 -37.675242 144.847446 171 448ft 0kts
10-Jul-19 22:52 -37.675096 144.847425 179 448ft 2kts
10-Jul-19 22:53 -37.674448 144.847936 241 448ft 2kts
10-Jul-19 22:54 -37.674384 144.848114 249 448ft 0kts
10-Jul-19 22:55 -37.674384 144.848113 249 448ft 0kts
10-Jul-19 22:56 -37.674389 144.847614 274 448ft 9kts
10-Jul-19 22:57 -37.673728 144.845049 349 448ft 7kts
10-Jul-19 22:58 -37.672027 144.843576 265 448ft 8kts
10-Jul-19 22:59 -37.669106 144.842153 351 448ft 13kts
10-Jul-19 23:00 -37.665478 144.842280 57 448ft 16kts
10-Jul-19 23:01 -37.664736 144.847374 67 448ft 11kts
10-Jul-19 23:02 -37.663353 144.847922 4 448ft 0kts
10-Jul-19 23:03 -37.662255 144.847735 272 448ft 4kts
10-Jul-19 23:04 -37.661052 144.827043 273 465ft 149kts
10-Jul-19 23:05 -37.658158 144.777382 276 2356ft 158kts
10-Jul-19 23:06 -37.653899 144.706155 275 4607ft 217kts
10-Jul-19 23:07 -37.642530 144.631783 286 8098ft 224kts
10-Jul-19 23:08 -37.618620 144.555251 286 10442ft 265kts
10-Jul-19 23:09 -37.588245 144.460664 285 12331ft 300kts
10-Jul-19 23:10 -37.556430 144.362069 284 14812ft 307kts
10-Jul-19 23:11 -37.523770 144.261163 283 17035ft 314kts
10-Jul-19 23:12 -37.490372 144.158276 283 18926ft 321kts
10-Jul-19 23:13 -37.455941 144.052597 282 20620ft 329kts
10-Jul-19 23:14 -37.420593 143.944500 282 22132ft 338kts
10-Jul-19 23:15 -37.384399 143.834280 282 23661ft 343kts
10-Jul-19 23:16 -37.347555 143.722434 282 25094ft 347kts
10-Jul-19 23:17 -37.310487 143.610368 282 26386ft 350kts
10-Jul-19 23:18 -37.272604 143.496268 282 27505ft 355kts
10-Jul-19 23:19 -37.234360 143.381514 282 28593ft 359kts
10-Jul-19 23:20 -37.195723 143.265302 282 29605ft 360kts
10-Jul-19 23:21 -37.159098 143.147710 281 30396ft 365kts
10-Jul-19 23:22 -37.122443 143.028060 281 31073ft 370kts
10-Jul-19 23:23 -37.085332 142.907096 281 31897ft 370kts
10-Jul-19 23:24 -37.048355 142.787066 281 32698ft 369kts
10-Jul-19 23:25 -37.011348 142.667409 281 33468ft 367kts
10-Jul-19 23:26 -36.974459 142.548645 281 34187ft 366kts
10-Jul-19 23:27 -36.937359 142.429652 282 34837ft 367kts
10-Jul-19 23:28 -36.899952 142.310261 282 35454ft 368kts
10-Jul-19 23:29 -36.862605 142.191541 283 36033ft 372kts
10-Jul-19 23:30 -36.824547 142.071111 283 36056ft 371kts
10-Jul-19 23:31 -36.786440 141.951009 283 36069ft 372kts
10-Jul-19 23:32 -36.748287 141.831282 283 36071ft 372kts
10-Jul-19 23:33 -36.709845 141.711131 284 36073ft 372kts
10-Jul-19 23:34 -36.671254 141.591029 283 36075ft 373kts
10-Jul-19 23:35 -36.632589 141.471176 284 36077ft 374kts
10-Jul-19 23:36 -36.593604 141.350857 284 36079ft 374kts
10-Jul-19 23:37 -36.554661 141.231153 284 36082ft 374kts
10-Jul-19 23:38 -36.515487 141.111231 284 36085ft 374kts
10-Jul-19 23:40 -36.476100 140.991151 284 36088ft 374kts
10-Jul-19 23:41 -36.436772 140.871733 284 36092ft 374kts
10-Jul-19 23:42 -36.397076 140.751781 285 36105ft 376kts
10-Jul-19 23:43 -36.331460 140.643792 298 36118ft 394kts
10-Jul-19 23:44 -36.263403 140.537048 298 36126ft 395kts
10-Jul-19 23:45 -36.195688 140.430628 298 36135ft 395kts
10-Jul-19 23:46 -36.127679 140.323947 298 34722ft 391kts
10-Jul-19 23:47 -36.061399 140.220567 298 32417ft 370kts
10-Jul-19 23:48 -35.998818 140.123325 298 30745ft 354kts
10-Jul-19 23:49 -35.938592 140.029691 298 29139ft 344kts
10-Jul-19 23:50 -35.878067 139.935649 298 27532ft 359kts
10-Jul-19 23:51 -35.816471 139.840470 298 25902ft 351kts
10-Jul-19 23:52 -35.755847 139.746965 298 24308ft 345kts
10-Jul-19 23:53 -35.696407 139.655523 298 22757ft 337kts
10-Jul-19 23:54 -35.638538 139.566727 299 21261ft 329kts
10-Jul-19 23:55 -35.581757 139.479855 299 19805ft 321kts
10-Jul-19 23:56 -35.526211 139.395076 299 18392ft 315kts
10-Jul-19 23:56 -35.480501 139.325446 299 17233ft 313kts
10-Jul-19 23:58 -35.410856 139.235790 318 15630ft 327kts
10-Jul-19 23:58 -35.340458 139.198535 328 14377ft 329kts
11-Jul-19 00:00 -35.242982 139.152762 329 12664ft 315kts
11-Jul-19 00:01 -35.163049 139.115711 329 11504ft 295kts
11-Jul-19 00:01 -35.100059 139.086576 330 10208ft 285kts
11-Jul-19 00:03 -35.029912 139.027460 310 9123ft 257kts
11-Jul-19 00:03 -34.986199 138.978962 310 8095ft 253kts
11-Jul-19 00:04 -34.936296 138.923221 310 6978ft 240kts
11-Jul-19 00:05 -34.888190 138.869512 310 6082ft 224kts
11-Jul-19 00:06 -34.844185 138.820373 310 5209ft 209kts
11-Jul-19 00:08 -34.807679 138.758715 268 3920ft 183kts
11-Jul-19 00:08 -34.826290 138.712804 236 3276ft 185kts
11-Jul-19 00:09 -34.858036 138.665217 234 2469ft 175kts
11-Jul-19 00:10 -34.888165 138.620853 235 1605ft 147kts
11-Jul-19 00:11 -34.911856 138.585867 235 914ft 131kts
11-Jul-19 00:12 -34.935500 138.551098 235 212ft 133kts
11-Jul-19 00:13 -34.951610 138.527270 231 34ft 32kts
11-Jul-19 00:14 -34.951593 138.524802 323 34ft 7kts
11-Jul-19 00:15 -34.948540 138.526224 37 34ft 14kts
11-Jul-19 00:16 -34.945859 138.528769 38 34ft 8kts
11-Jul-19 00:17 -34.944537 138.531115 124 34ft 11kts
11-Jul-19 00:18 -34.944273 138.534672 50 34ft 11kts
11-Jul-19 00:19 -34.942319 138.536452 317 34ft 8kts
11-Jul-19 00:20 -34.941149 138.536015 324 34ft 0kts
11-Jul-19 00:21 -34.941149 138.536015 324 34ft 0kts
11-Jul-19 00:22 -34.941149 138.536015 324 34ft 0kts

Navigation Log

Ident Type
Flight plan parsing failed, navigation log unavailable